sensor_id;sensor_type;location;lat;lon;timestamp;P1;durP1;ratioP1;P2;durP2;ratioP2
43256;SDS011;28860;43.212;27.934;2023-08-21T00:01:44;15.30;;;4.28;;
43256;SDS011;28860;43.212;27.934;2023-08-21T00:04:09;21.90;;;4.57;;
43256;SDS011;28860;43.212;27.934;2023-08-21T00:06:35;14.43;;;4.22;;
43256;SDS011;28860;43.212;27.934;2023-08-21T00:09:01;16.75;;;4.40;;
43256;SDS011;28860;43.212;27.934;2023-08-21T00:11:27;15.30;;;3.90;;
43256;SDS011;28860;43.212;27.934;2023-08-21T00:13:52;15.20;;;4.85;;
43256;SDS011;28860;43.212;27.934;2023-08-21T00:16:18;18.75;;;4.45;;
43256;SDS011;28860;43.212;27.934;2023-08-21T00:18:44;16.88;;;4.10;;
43256;SDS011;28860;43.212;27.934;2023-08-21T00:21:09;13.77;;;4.10;;
43256;SDS011;28860;43.212;27.934;2023-08-21T00:23:35;14.55;;;5.07;;
43256;SDS011;28860;43.212;27.934;2023-08-21T00:26:00;21.85;;;4.13;;
43256;SDS011;28860;43.212;27.934;2023-08-21T00:28:28;18.63;;;5.00;;
43256;SDS011;28860;43.212;27.934;2023-08-21T00:33:27;21.45;;;4.95;;
43256;SDS011;28860;43.212;27.934;2023-08-21T00:35:55;20.70;;;4.97;;
43256;SDS011;28860;43.212;27.934;2023-08-21T00:38:24;25.95;;;4.95;;
43256;SDS011;28860;43.212;27.934;2023-08-21T00:40:50;22.67;;;6.10;;
43256;SDS011;28860;43.212;27.934;2023-08-21T00:43:16;20.77;;;6.13;;
43256;SDS011;28860;43.212;27.934;2023-08-21T00:45:42;22.13;;;6.32;;
43256;SDS011;28860;43.212;27.934;2023-08-21T00:48:09;26.75;;;6.10;;
43256;SDS011;28860;43.212;27.934;2023-08-21T00:50:38;22.20;;;5.85;;
43256;SDS011;28860;43.212;27.934;2023-08-21T00:53:05;23.58;;;5.95;;
43256;SDS011;28860;43.212;27.934;2023-08-21T00:55:31;28.80;;;6.72;;
43256;SDS011;28860;43.212;27.934;2023-08-21T00:57:57;22.67;;;5.85;;
43256;SDS011;28860;43.212;27.934;2023-08-21T01:00:24;29.50;;;6.13;;
43256;SDS011;28860;43.212;27.934;2023-08-21T01:02:50;20.80;;;6.13;;
43256;SDS011;28860;43.212;27.934;2023-08-21T01:05:17;23.35;;;5.75;;
43256;SDS011;28860;43.212;27.934;2023-08-21T01:07:57;26.17;;;5.60;;
43256;SDS011;28860;43.212;27.934;2023-08-21T01:15:54;21.70;;;5.43;;
43256;SDS011;28860;43.212;27.934;2023-08-21T01:18:26;27.88;;;5.90;;
43256;SDS011;28860;43.212;27.934;2023-08-21T01:20:54;20.33;;;5.32;;
43256;SDS011;28860;43.212;27.934;2023-08-21T01:26:16;23.52;;;5.45;;
43256;SDS011;28860;43.212;27.934;2023-08-21T01:28:44;22.92;;;5.50;;
43256;SDS011;28860;43.212;27.934;2023-08-21T01:31:18;19.17;;;4.63;;
43256;SDS011;28860;43.212;27.934;2023-08-21T01:33:54;26.55;;;5.38;;
43256;SDS011;28860;43.212;27.934;2023-08-21T01:36:22;18.38;;;5.35;;
43256;SDS011;28860;43.212;27.934;2023-08-21T01:38:48;19.98;;;4.30;;
43256;SDS011;28860;43.212;27.934;2023-08-21T01:41:14;22.48;;;4.82;;
43256;SDS011;28860;43.212;27.934;2023-08-21T01:43:41;14.25;;;4.65;;
43256;SDS011;28860;43.212;27.934;2023-08-21T01:46:09;30.67;;;5.78;;
43256;SDS011;28860;43.212;27.934;2023-08-21T01:48:36;21.13;;;5.15;;
43256;SDS011;28860;43.212;27.934;2023-08-21T01:51:01;16.13;;;4.45;;
43256;SDS011;28860;43.212;27.934;2023-08-21T01:53:28;29.98;;;5.60;;
43256;SDS011;28860;43.212;27.934;2023-08-21T01:55:53;18.40;;;4.55;;
43256;SDS011;28860;43.212;27.934;2023-08-21T01:58:19;14.05;;;4.15;;
43256;SDS011;28860;43.212;27.934;2023-08-21T02:00:48;25.67;;;4.68;;
43256;SDS011;28860;43.212;27.934;2023-08-21T02:03:13;15.57;;;3.97;;
43256;SDS011;28860;43.212;27.934;2023-08-21T02:05:40;17.17;;;4.43;;
43256;SDS011;28860;43.212;27.934;2023-08-21T02:08:06;20.38;;;4.00;;
43256;SDS011;28860;43.212;27.934;2023-08-21T02:10:34;14.95;;;4.38;;
43256;SDS011;28860;43.212;27.934;2023-08-21T02:13:00;12.40;;;4.03;;
43256;SDS011;28860;43.212;27.934;2023-08-21T02:15:25;8.90;;;4.10;;
43256;SDS011;28860;43.212;27.934;2023-08-21T02:17:51;15.10;;;4.00;;
43256;SDS011;28860;43.212;27.934;2023-08-21T02:20:16;11.43;;;3.85;;
43256;SDS011;28860;43.212;27.934;2023-08-21T02:22:45;13.15;;;4.75;;
43256;SDS011;28860;43.212;27.934;2023-08-21T02:25:10;14.60;;;3.88;;
43256;SDS011;28860;43.212;27.934;2023-08-21T02:27:36;12.32;;;3.35;;
43256;SDS011;28860;43.212;27.934;2023-08-21T02:30:05;8.07;;;3.65;;
43256;SDS011;28860;43.212;27.934;2023-08-21T02:32:32;12.20;;;3.35;;
43256;SDS011;28860;43.212;27.934;2023-08-21T02:34:57;12.95;;;3.55;;
43256;SDS011;28860;43.212;27.934;2023-08-21T02:37:23;12.50;;;4.28;;
43256;SDS011;28860;43.212;27.934;2023-08-21T02:39:51;14.23;;;3.88;;
43256;SDS011;28860;43.212;27.934;2023-08-21T02:42:19;8.23;;;3.58;;
43256;SDS011;28860;43.212;27.934;2023-08-21T02:44:45;9.18;;;3.70;;
43256;SDS011;28860;43.212;27.934;2023-08-21T02:47:12;20.98;;;3.88;;
43256;SDS011;28860;43.212;27.934;2023-08-21T02:49:38;10.27;;;3.50;;
43256;SDS011;28860;43.212;27.934;2023-08-21T02:52:04;11.15;;;3.33;;
43256;SDS011;28860;43.212;27.934;2023-08-21T02:54:29;14.35;;;3.88;;
43256;SDS011;28860;43.212;27.934;2023-08-21T02:56:55;11.45;;;4.50;;
43256;SDS011;28860;43.212;27.934;2023-08-21T02:59:22;16.98;;;3.63;;
43256;SDS011;28860;43.212;27.934;2023-08-21T03:01:48;13.30;;;3.78;;
43256;SDS011;28860;43.212;27.934;2023-08-21T03:04:13;11.40;;;3.83;;
43256;SDS011;28860;43.212;27.934;2023-08-21T03:06:39;20.30;;;3.85;;
43256;SDS011;28860;43.212;27.934;2023-08-21T03:09:05;8.85;;;4.28;;
43256;SDS011;28860;43.212;27.934;2023-08-21T03:11:30;15.45;;;4.45;;
43256;SDS011;28860;43.212;27.934;2023-08-21T03:13:56;14.88;;;4.20;;
43256;SDS011;28860;43.212;27.934;2023-08-21T03:16:21;17.13;;;4.00;;
43256;SDS011;28860;43.212;27.934;2023-08-21T03:18:53;15.93;;;5.32;;
43256;SDS011;28860;43.212;27.934;2023-08-21T03:21:23;18.60;;;5.15;;
43256;SDS011;28860;43.212;27.934;2023-08-21T03:23:50;13.40;;;5.30;;
43256;SDS011;28860;43.212;27.934;2023-08-21T03:26:17;21.92;;;5.60;;
43256;SDS011;28860;43.212;27.934;2023-08-21T03:28:42;16.88;;;4.47;;
43256;SDS011;28860;43.212;27.934;2023-08-21T03:31:08;14.20;;;5.30;;
43256;SDS011;28860;43.212;27.934;2023-08-21T03:33:36;12.75;;;5.68;;
43256;SDS011;28860;43.212;27.934;2023-08-21T03:36:01;21.20;;;5.13;;
43256;SDS011;28860;43.212;27.934;2023-08-21T03:38:27;22.42;;;5.78;;
43256;SDS011;28860;43.212;27.934;2023-08-21T03:40:53;18.15;;;5.72;;
43256;SDS011;28860;43.212;27.934;2023-08-21T03:43:18;14.98;;;5.22;;
43256;SDS011;28860;43.212;27.934;2023-08-21T03:45:44;22.20;;;5.82;;
43256;SDS011;28860;43.212;27.934;2023-08-21T03:48:09;16.20;;;5.57;;
43256;SDS011;28860;43.212;27.934;2023-08-21T03:50:35;14.30;;;5.65;;
43256;SDS011;28860;43.212;27.934;2023-08-21T03:53:01;13.00;;;5.43;;
43256;SDS011;28860;43.212;27.934;2023-08-21T03:55:26;14.73;;;5.13;;
43256;SDS011;28860;43.212;27.934;2023-08-21T03:57:52;13.35;;;5.50;;
43256;SDS011;28860;43.212;27.934;2023-08-21T04:00:23;16.40;;;5.15;;
43256;SDS011;28860;43.212;27.934;2023-08-21T04:02:48;15.77;;;4.70;;
43256;SDS011;28860;43.212;27.934;2023-08-21T04:05:14;19.80;;;4.90;;
43256;SDS011;28860;43.212;27.934;2023-08-21T04:07:40;13.65;;;4.90;;
43256;SDS011;28860;43.212;27.934;2023-08-21T04:10:08;12.85;;;5.40;;
43256;SDS011;28860;43.212;27.934;2023-08-21T04:12:34;16.23;;;5.25;;
43256;SDS011;28860;43.212;27.934;2023-08-21T04:15:00;16.52;;;4.75;;
43256;SDS011;28860;43.212;27.934;2023-08-21T04:17:25;17.08;;;4.88;;
43256;SDS011;28860;43.212;27.934;2023-08-21T04:19:51;18.67;;;5.45;;
43256;SDS011;28860;43.212;27.934;2023-08-21T04:22:17;20.23;;;5.18;;
43256;SDS011;28860;43.212;27.934;2023-08-21T04:24:45;11.48;;;4.88;;
43256;SDS011;28860;43.212;27.934;2023-08-21T04:27:10;17.05;;;5.85;;
43256;SDS011;28860;43.212;27.934;2023-08-21T04:29:36;16.58;;;5.47;;
43256;SDS011;28860;43.212;27.934;2023-08-21T04:32:03;18.95;;;5.18;;
43256;SDS011;28860;43.212;27.934;2023-08-21T04:34:31;15.57;;;5.00;;
43256;SDS011;28860;43.212;27.934;2023-08-21T04:36:57;11.35;;;5.05;;
43256;SDS011;28860;43.212;27.934;2023-08-21T04:39:26;11.95;;;5.28;;
43256;SDS011;28860;43.212;27.934;2023-08-21T04:41:58;17.85;;;5.22;;
43256;SDS011;28860;43.212;27.934;2023-08-21T04:44:25;17.90;;;5.32;;
43256;SDS011;28860;43.212;27.934;2023-08-21T04:46:50;12.15;;;5.10;;
43256;SDS011;28860;43.212;27.934;2023-08-21T04:49:16;19.88;;;4.93;;
43256;SDS011;28860;43.212;27.934;2023-08-21T04:51:44;27.42;;;5.45;;
43256;SDS011;28860;43.212;27.934;2023-08-21T04:54:10;14.90;;;4.90;;
43256;SDS011;28860;43.212;27.934;2023-08-21T04:56:35;14.02;;;4.85;;
43256;SDS011;28860;43.212;27.934;2023-08-21T04:59:01;16.90;;;4.95;;
43256;SDS011;28860;43.212;27.934;2023-08-21T05:01:27;15.80;;;5.30;;
43256;SDS011;28860;43.212;27.934;2023-08-21T05:03:53;11.45;;;5.20;;
43256;SDS011;28860;43.212;27.934;2023-08-21T05:06:21;17.05;;;5.07;;
43256;SDS011;28860;43.212;27.934;2023-08-21T05:08:55;14.80;;;5.25;;
43256;SDS011;28860;43.212;27.934;2023-08-21T05:11:23;17.58;;;5.40;;
43256;SDS011;28860;43.212;27.934;2023-08-21T05:13:50;17.17;;;5.28;;
43256;SDS011;28860;43.212;27.934;2023-08-21T05:16:21;18.35;;;5.53;;
43256;SDS011;28860;43.212;27.934;2023-08-21T05:18:50;25.75;;;6.68;;
43256;SDS011;28860;43.212;27.934;2023-08-21T05:21:21;24.08;;;5.82;;
43256;SDS011;28860;43.212;27.934;2023-08-21T05:23:49;16.08;;;5.43;;
43256;SDS011;28860;43.212;27.934;2023-08-21T05:26:17;19.73;;;5.95;;
43256;SDS011;28860;43.212;27.934;2023-08-21T05:28:44;19.33;;;6.05;;
43256;SDS011;28860;43.212;27.934;2023-08-21T05:31:14;19.10;;;5.28;;
43256;SDS011;28860;43.212;27.934;2023-08-21T05:33:40;16.13;;;5.35;;
43256;SDS011;28860;43.212;27.934;2023-08-21T05:36:05;17.90;;;6.35;;
43256;SDS011;28860;43.212;27.934;2023-08-21T05:38:33;17.42;;;5.70;;
43256;SDS011;28860;43.212;27.934;2023-08-21T05:41:01;16.55;;;5.63;;
43256;SDS011;28860;43.212;27.934;2023-08-21T05:43:26;18.52;;;5.40;;
43256;SDS011;28860;43.212;27.934;2023-08-21T05:45:52;15.57;;;6.03;;
43256;SDS011;28860;43.212;27.934;2023-08-21T05:48:18;15.90;;;5.70;;
43256;SDS011;28860;43.212;27.934;2023-08-21T05:50:43;56.35;;;7.32;;
43256;SDS011;28860;43.212;27.934;2023-08-21T05:53:12;88.97;;;9.10;;
43256;SDS011;28860;43.212;27.934;2023-08-21T05:55:37;35.70;;;7.38;;
43256;SDS011;28860;43.212;27.934;2023-08-21T05:58:03;73.10;;;8.55;;
43256;SDS011;28860;43.212;27.934;2023-08-21T06:00:29;35.58;;;6.93;;
43256;SDS011;28860;43.212;27.934;2023-08-21T06:02:58;18.40;;;5.75;;
43256;SDS011;28860;43.212;27.934;2023-08-21T06:05:24;22.40;;;6.20;;
43256;SDS011;28860;43.212;27.934;2023-08-21T06:07:53;30.42;;;7.25;;
43256;SDS011;28860;43.212;27.934;2023-08-21T06:10:18;15.85;;;5.45;;
43256;SDS011;28860;43.212;27.934;2023-08-21T06:12:44;17.50;;;6.07;;
43256;SDS011;28860;43.212;27.934;2023-08-21T06:15:10;34.03;;;6.40;;
43256;SDS011;28860;43.212;27.934;2023-08-21T06:17:37;26.05;;;6.35;;
43256;SDS011;28860;43.212;27.934;2023-08-21T06:20:06;22.70;;;7.18;;
43256;SDS011;28860;43.212;27.934;2023-08-21T06:22:48;20.58;;;6.00;;
43256;SDS011;28860;43.212;27.934;2023-08-21T06:25:17;28.98;;;7.53;;
43256;SDS011;28860;43.212;27.934;2023-08-21T06:27:46;21.98;;;6.43;;
43256;SDS011;28860;43.212;27.934;2023-08-21T06:30:11;12.77;;;5.32;;
43256;SDS011;28860;43.212;27.934;2023-08-21T06:32:41;17.23;;;6.00;;
43256;SDS011;28860;43.212;27.934;2023-08-21T06:35:06;48.72;;;7.47;;
43256;SDS011;28860;43.212;27.934;2023-08-21T06:37:32;47.30;;;7.85;;
43256;SDS011;28860;43.212;27.934;2023-08-21T06:39:58;97.63;;;9.27;;
43256;SDS011;28860;43.212;27.934;2023-08-21T06:42:23;42.42;;;7.82;;
43256;SDS011;28860;43.212;27.934;2023-08-21T06:44:49;22.02;;;6.07;;
43256;SDS011;28860;43.212;27.934;2023-08-21T06:47:16;15.15;;;5.53;;
43256;SDS011;28860;43.212;27.934;2023-08-21T06:49:41;21.27;;;6.03;;
43256;SDS011;28860;43.212;27.934;2023-08-21T06:52:07;40.53;;;6.38;;
43256;SDS011;28860;43.212;27.934;2023-08-21T06:54:32;29.13;;;6.10;;
43256;SDS011;28860;43.212;27.934;2023-08-21T06:56:58;105.15;;;11.02;;
43256;SDS011;28860;43.212;27.934;2023-08-21T06:59:27;55.85;;;7.75;;
43256;SDS011;28860;43.212;27.934;2023-08-21T07:01:55;64.45;;;7.50;;
43256;SDS011;28860;43.212;27.934;2023-08-21T07:04:20;16.52;;;5.30;;
43256;SDS011;28860;43.212;27.934;2023-08-21T07:06:46;25.30;;;6.28;;
43256;SDS011;28860;43.212;27.934;2023-08-21T07:09:11;13.35;;;5.00;;
43256;SDS011;28860;43.212;27.934;2023-08-21T07:11:39;25.00;;;4.90;;
43256;SDS011;28860;43.212;27.934;2023-08-21T07:14:05;19.40;;;4.80;;
43256;SDS011;28860;43.212;27.934;2023-08-21T07:16:33;17.75;;;5.05;;
43256;SDS011;28860;43.212;27.934;2023-08-21T07:18:59;13.38;;;5.00;;
43256;SDS011;28860;43.212;27.934;2023-08-21T07:21:25;17.38;;;4.82;;
43256;SDS011;28860;43.212;27.934;2023-08-21T07:23:50;22.15;;;5.03;;
43256;SDS011;28860;43.212;27.934;2023-08-21T07:26:16;24.42;;;6.40;;
43256;SDS011;28860;43.212;27.934;2023-08-21T07:28:41;28.80;;;6.40;;
43256;SDS011;28860;43.212;27.934;2023-08-21T07:31:09;17.58;;;5.70;;
43256;SDS011;28860;43.212;27.934;2023-08-21T07:33:34;29.15;;;5.32;;
43256;SDS011;28860;43.212;27.934;2023-08-21T07:36:04;35.50;;;5.68;;
43256;SDS011;28860;43.212;27.934;2023-08-21T07:38:31;27.23;;;6.45;;
43256;SDS011;28860;43.212;27.934;2023-08-21T07:41:04;15.93;;;5.18;;
43256;SDS011;28860;43.212;27.934;2023-08-21T07:43:33;15.95;;;5.45;;
43256;SDS011;28860;43.212;27.934;2023-08-21T07:46:05;19.73;;;5.63;;
43256;SDS011;28860;43.212;27.934;2023-08-21T07:48:32;23.23;;;6.70;;
43256;SDS011;28860;43.212;27.934;2023-08-21T07:50:58;20.10;;;5.57;;
43256;SDS011;28860;43.212;27.934;2023-08-21T07:53:27;12.82;;;5.63;;
43256;SDS011;28860;43.212;27.934;2023-08-21T07:55:53;14.25;;;5.25;;
43256;SDS011;28860;43.212;27.934;2023-08-21T07:58:19;14.98;;;5.72;;
43256;SDS011;28860;43.212;27.934;2023-08-21T08:00:45;16.85;;;5.13;;
43256;SDS011;28860;43.212;27.934;2023-08-21T08:03:11;21.00;;;5.47;;
43256;SDS011;28860;43.212;27.934;2023-08-21T08:05:39;25.85;;;5.82;;
43256;SDS011;28860;43.212;27.934;2023-08-21T08:08:08;45.75;;;6.93;;
43256;SDS011;28860;43.212;27.934;2023-08-21T08:10:38;232.07;;;16.42;;
43256;SDS011;28860;43.212;27.934;2023-08-21T08:13:06;88.65;;;9.43;;
43256;SDS011;28860;43.212;27.934;2023-08-21T08:15:33;53.42;;;7.28;;
43256;SDS011;28860;43.212;27.934;2023-08-21T08:18:00;30.35;;;6.38;;
43256;SDS011;28860;43.212;27.934;2023-08-21T08:20:29;45.35;;;6.85;;
43256;SDS011;28860;43.212;27.934;2023-08-21T08:22:55;27.55;;;6.10;;
43256;SDS011;28860;43.212;27.934;2023-08-21T08:25:21;25.40;;;6.47;;
43256;SDS011;28860;43.212;27.934;2023-08-21T08:27:51;19.85;;;5.05;;
43256;SDS011;28860;43.212;27.934;2023-08-21T08:30:19;18.23;;;5.38;;
43256;SDS011;28860;43.212;27.934;2023-08-21T08:32:48;18.27;;;5.20;;
43256;SDS011;28860;43.212;27.934;2023-08-21T08:35:14;16.13;;;5.28;;
43256;SDS011;28860;43.212;27.934;2023-08-21T08:37:43;12.07;;;4.50;;
43256;SDS011;28860;43.212;27.934;2023-08-21T08:40:09;14.43;;;5.25;;
43256;SDS011;28860;43.212;27.934;2023-08-21T08:42:36;148.25;;;10.48;;
43256;SDS011;28860;43.212;27.934;2023-08-21T08:45:02;57.95;;;8.05;;
43256;SDS011;28860;43.212;27.934;2023-08-21T08:47:30;100.45;;;9.18;;
43256;SDS011;28860;43.212;27.934;2023-08-21T08:49:58;35.35;;;5.70;;
43256;SDS011;28860;43.212;27.934;2023-08-21T08:52:26;163.73;;;10.82;;
43256;SDS011;28860;43.212;27.934;2023-08-21T08:54:53;64.05;;;7.05;;
43256;SDS011;28860;43.212;27.934;2023-08-21T08:57:20;28.02;;;4.75;;
43256;SDS011;28860;43.212;27.934;2023-08-21T08:59:48;15.40;;;4.80;;
43256;SDS011;28860;43.212;27.934;2023-08-21T09:02:14;11.48;;;5.18;;
43256;SDS011;28860;43.212;27.934;2023-08-21T09:04:40;67.45;;;6.97;;
43256;SDS011;28860;43.212;27.934;2023-08-21T09:07:09;54.92;;;6.32;;
43256;SDS011;28860;43.212;27.934;2023-08-21T09:09:40;43.37;;;5.83;;
43256;SDS011;28860;43.212;27.934;2023-08-21T09:12:10;34.10;;;4.95;;
43256;SDS011;28860;43.212;27.934;2023-08-21T09:14:40;12.98;;;5.60;;
43256;SDS011;28860;43.212;27.934;2023-08-21T09:17:06;11.45;;;4.95;;
43256;SDS011;28860;43.212;27.934;2023-08-21T09:19:33;21.17;;;5.00;;
43256;SDS011;28860;43.212;27.934;2023-08-21T09:21:58;13.45;;;4.55;;
43256;SDS011;28860;43.212;27.934;2023-08-21T09:24:32;10.88;;;4.90;;
43256;SDS011;28860;43.212;27.934;2023-08-21T09:27:02;11.80;;;5.68;;
43256;SDS011;28860;43.212;27.934;2023-08-21T09:29:39;11.85;;;5.63;;
43256;SDS011;28860;43.212;27.934;2023-08-21T09:32:07;22.25;;;4.80;;
43256;SDS011;28860;43.212;27.934;2023-08-21T09:34:34;14.73;;;4.18;;
43256;SDS011;28860;43.212;27.934;2023-08-21T09:37:06;19.95;;;4.32;;
43256;SDS011;28860;43.212;27.934;2023-08-21T09:39:33;19.83;;;4.70;;
43256;SDS011;28860;43.212;27.934;2023-08-21T09:42:05;10.80;;;4.45;;
43256;SDS011;28860;43.212;27.934;2023-08-21T09:44:36;13.10;;;4.50;;
43256;SDS011;28860;43.212;27.934;2023-08-21T09:47:11;27.90;;;4.45;;
43256;SDS011;28860;43.212;27.934;2023-08-21T09:49:38;9.18;;;4.22;;
43256;SDS011;28860;43.212;27.934;2023-08-21T09:52:08;9.73;;;4.68;;
43256;SDS011;28860;43.212;27.934;2023-08-21T09:54:38;19.65;;;4.63;;
43256;SDS011;28860;43.212;27.934;2023-08-21T09:57:03;9.68;;;4.78;;
43256;SDS011;28860;43.212;27.934;2023-08-21T09:59:32;10.02;;;3.95;;
43256;SDS011;28860;43.212;27.934;2023-08-21T10:02:01;14.57;;;4.93;;
43256;SDS011;28860;43.212;27.934;2023-08-21T10:04:30;13.43;;;3.85;;
43256;SDS011;28860;43.212;27.934;2023-08-21T10:06:59;14.63;;;4.45;;
43256;SDS011;28860;43.212;27.934;2023-08-21T10:09:28;18.08;;;4.20;;
43256;SDS011;28860;43.212;27.934;2023-08-21T10:11:54;9.60;;;3.80;;
43256;SDS011;28860;43.212;27.934;2023-08-21T10:14:23;12.52;;;4.80;;
43256;SDS011;28860;43.212;27.934;2023-08-21T10:16:53;16.58;;;4.47;;
43256;SDS011;28860;43.212;27.934;2023-08-21T10:19:19;14.82;;;4.40;;
43256;SDS011;28860;43.212;27.934;2023-08-21T10:21:48;10.73;;;3.60;;
43256;SDS011;28860;43.212;27.934;2023-08-21T10:24:25;9.30;;;4.03;;
43256;SDS011;28860;43.212;27.934;2023-08-21T10:26:51;13.60;;;3.92;;
43256;SDS011;28860;43.212;27.934;2023-08-21T10:29:16;11.02;;;4.20;;
43256;SDS011;28860;43.212;27.934;2023-08-21T10:31:42;16.10;;;4.10;;
43256;SDS011;28860;43.212;27.934;2023-08-21T10:34:09;10.88;;;3.65;;
43256;SDS011;28860;43.212;27.934;2023-08-21T10:39:17;13.15;;;4.40;;
43256;SDS011;28860;43.212;27.934;2023-08-21T10:41:57;12.00;;;4.45;;
43256;SDS011;28860;43.212;27.934;2023-08-21T10:44:35;11.60;;;4.70;;
43256;SDS011;28860;43.212;27.934;2023-08-21T10:49:40;8.32;;;3.97;;
43256;SDS011;28860;43.212;27.934;2023-08-21T10:52:07;20.08;;;4.72;;
43256;SDS011;28860;43.212;27.934;2023-08-21T10:54:42;7.28;;;3.65;;
43256;SDS011;28860;43.212;27.934;2023-08-21T10:57:15;15.52;;;4.40;;
43256;SDS011;28860;43.212;27.934;2023-08-21T10:59:51;13.60;;;3.92;;
43256;SDS011;28860;43.212;27.934;2023-08-21T11:02:22;10.63;;;3.60;;
43256;SDS011;28860;43.212;27.934;2023-08-21T11:04:48;14.02;;;4.35;;
43256;SDS011;28860;43.212;27.934;2023-08-21T11:07:15;11.90;;;4.55;;
43256;SDS011;28860;43.212;27.934;2023-08-21T11:09:43;7.95;;;4.78;;
43256;SDS011;28860;43.212;27.934;2023-08-21T11:12:09;8.48;;;4.35;;
43256;SDS011;28860;43.212;27.934;2023-08-21T11:14:39;12.55;;;5.78;;
43256;SDS011;28860;43.212;27.934;2023-08-21T11:17:09;9.15;;;5.03;;
43256;SDS011;28860;43.212;27.934;2023-08-21T11:19:35;13.13;;;4.60;;
43256;SDS011;28860;43.212;27.934;2023-08-21T11:22:02;17.13;;;5.22;;
43256;SDS011;28860;43.212;27.934;2023-08-21T11:24:40;12.60;;;5.93;;
43256;SDS011;28860;43.212;27.934;2023-08-21T11:27:11;12.02;;;5.50;;
43256;SDS011;28860;43.212;27.934;2023-08-21T11:29:39;13.90;;;4.82;;
43256;SDS011;28860;43.212;27.934;2023-08-21T11:32:16;17.23;;;5.50;;
43256;SDS011;28860;43.212;27.934;2023-08-21T11:37:19;18.30;;;5.57;;
43256;SDS011;28860;43.212;27.934;2023-08-21T11:39:53;14.80;;;5.05;;
43256;SDS011;28860;43.212;27.934;2023-08-21T11:42:30;13.32;;;5.85;;
43256;SDS011;28860;43.212;27.934;2023-08-21T11:44:56;10.88;;;5.43;;
43256;SDS011;28860;43.212;27.934;2023-08-21T11:47:23;31.15;;;5.70;;
43256;SDS011;28860;43.212;27.934;2023-08-21T11:52:21;12.95;;;5.43;;
43256;SDS011;28860;43.212;27.934;2023-08-21T11:54:50;16.60;;;5.63;;
43256;SDS011;28860;43.212;27.934;2023-08-21T11:57:17;15.13;;;6.03;;
43256;SDS011;28860;43.212;27.934;2023-08-21T11:59:49;11.10;;;5.60;;
43256;SDS011;28860;43.212;27.934;2023-08-21T12:04:51;16.15;;;5.78;;
43256;SDS011;28860;43.212;27.934;2023-08-21T12:07:25;18.60;;;5.90;;
43256;SDS011;28860;43.212;27.934;2023-08-21T12:09:51;18.92;;;5.43;;
43256;SDS011;28860;43.212;27.934;2023-08-21T12:12:16;8.65;;;5.07;;
43256;SDS011;28860;43.212;27.934;2023-08-21T12:14:42;14.43;;;5.70;;
43256;SDS011;28860;43.212;27.934;2023-08-21T12:17:08;11.88;;;5.75;;
43256;SDS011;28860;43.212;27.934;2023-08-21T12:19:36;17.48;;;6.05;;
43256;SDS011;28860;43.212;27.934;2023-08-21T12:22:02;14.68;;;5.68;;
43256;SDS011;28860;43.212;27.934;2023-08-21T12:24:28;12.15;;;5.55;;
43256;SDS011;28860;43.212;27.934;2023-08-21T12:26:54;19.15;;;6.20;;
43256;SDS011;28860;43.212;27.934;2023-08-21T12:29:22;11.82;;;6.25;;
43256;SDS011;28860;43.212;27.934;2023-08-21T12:31:48;16.08;;;6.22;;
43256;SDS011;28860;43.212;27.934;2023-08-21T12:34:14;11.85;;;5.50;;
43256;SDS011;28860;43.212;27.934;2023-08-21T12:36:39;10.25;;;5.25;;
43256;SDS011;28860;43.212;27.934;2023-08-21T12:39:05;15.60;;;5.65;;
43256;SDS011;28860;43.212;27.934;2023-08-21T12:41:34;10.70;;;5.50;;
43256;SDS011;28860;43.212;27.934;2023-08-21T12:44:01;17.50;;;5.95;;
43256;SDS011;28860;43.212;27.934;2023-08-21T12:46:29;15.50;;;6.28;;
43256;SDS011;28860;43.212;27.934;2023-08-21T12:48:55;17.65;;;5.93;;
43256;SDS011;28860;43.212;27.934;2023-08-21T12:51:24;11.68;;;5.57;;
43256;SDS011;28860;43.212;27.934;2023-08-21T12:53:49;18.92;;;5.95;;
43256;SDS011;28860;43.212;27.934;2023-08-21T12:56:16;11.48;;;5.05;;
43256;SDS011;28860;43.212;27.934;2023-08-21T12:58:45;9.68;;;5.45;;
43256;SDS011;28860;43.212;27.934;2023-08-21T13:01:11;13.57;;;5.70;;
43256;SDS011;28860;43.212;27.934;2023-08-21T13:03:37;15.25;;;5.35;;
43256;SDS011;28860;43.212;27.934;2023-08-21T13:06:03;9.88;;;5.35;;
43256;SDS011;28860;43.212;27.934;2023-08-21T13:08:31;13.02;;;5.03;;
43256;SDS011;28860;43.212;27.934;2023-08-21T13:10:57;14.05;;;5.57;;
43256;SDS011;28860;43.212;27.934;2023-08-21T13:13:26;16.50;;;5.65;;
43256;SDS011;28860;43.212;27.934;2023-08-21T13:15:51;13.85;;;5.70;;
43256;SDS011;28860;43.212;27.934;2023-08-21T13:18:18;12.55;;;5.80;;
43256;SDS011;28860;43.212;27.934;2023-08-21T13:20:44;10.20;;;5.43;;
43256;SDS011;28860;43.212;27.934;2023-08-21T13:23:10;11.50;;;5.80;;
43256;SDS011;28860;43.212;27.934;2023-08-21T13:25:35;15.13;;;5.63;;
43256;SDS011;28860;43.212;27.934;2023-08-21T13:28:01;18.90;;;6.30;;
43256;SDS011;28860;43.212;27.934;2023-08-21T13:30:30;19.95;;;5.93;;
43256;SDS011;28860;43.212;27.934;2023-08-21T13:33:01;13.82;;;6.00;;
43256;SDS011;28860;43.212;27.934;2023-08-21T13:35:28;13.43;;;5.93;;
43256;SDS011;28860;43.212;27.934;2023-08-21T13:37:54;20.55;;;6.15;;
43256;SDS011;28860;43.212;27.934;2023-08-21T13:40:23;13.20;;;5.38;;
43256;SDS011;28860;43.212;27.934;2023-08-21T13:42:50;17.83;;;5.85;;
43256;SDS011;28860;43.212;27.934;2023-08-21T13:45:16;17.75;;;5.38;;
43256;SDS011;28860;43.212;27.934;2023-08-21T13:47:45;12.15;;;5.43;;
43256;SDS011;28860;43.212;27.934;2023-08-21T13:50:12;15.23;;;5.50;;
43256;SDS011;28860;43.212;27.934;2023-08-21T13:52:39;15.25;;;5.43;;
43256;SDS011;28860;43.212;27.934;2023-08-21T13:55:06;11.10;;;5.38;;
43256;SDS011;28860;43.212;27.934;2023-08-21T13:57:35;17.63;;;5.35;;
43256;SDS011;28860;43.212;27.934;2023-08-21T14:00:02;14.07;;;5.35;;
43256;SDS011;28860;43.212;27.934;2023-08-21T14:02:35;11.13;;;5.15;;
43256;SDS011;28860;43.212;27.934;2023-08-21T14:05:04;19.60;;;6.47;;
43256;SDS011;28860;43.212;27.934;2023-08-21T14:07:33;17.35;;;5.15;;
43256;SDS011;28860;43.212;27.934;2023-08-21T14:09:59;13.68;;;5.50;;
43256;SDS011;28860;43.212;27.934;2023-08-21T14:12:30;15.77;;;5.60;;
43256;SDS011;28860;43.212;27.934;2023-08-21T14:14:56;14.93;;;5.57;;
43256;SDS011;28860;43.212;27.934;2023-08-21T14:17:24;9.55;;;5.43;;
43256;SDS011;28860;43.212;27.934;2023-08-21T14:19:49;16.20;;;5.80;;
43256;SDS011;28860;43.212;27.934;2023-08-21T14:22:20;19.10;;;6.50;;
43256;SDS011;28860;43.212;27.934;2023-08-21T14:24:46;14.70;;;5.78;;
43256;SDS011;28860;43.212;27.934;2023-08-21T14:27:13;15.23;;;5.82;;
43256;SDS011;28860;43.212;27.934;2023-08-21T14:29:39;18.08;;;5.90;;
43256;SDS011;28860;43.212;27.934;2023-08-21T14:32:07;11.45;;;5.68;;
43256;SDS011;28860;43.212;27.934;2023-08-21T14:34:35;12.45;;;5.43;;
43256;SDS011;28860;43.212;27.934;2023-08-21T14:37:03;13.55;;;5.55;;
43256;SDS011;28860;43.212;27.934;2023-08-21T14:39:32;14.05;;;5.32;;
43256;SDS011;28860;43.212;27.934;2023-08-21T14:41:58;15.93;;;5.88;;
43256;SDS011;28860;43.212;27.934;2023-08-21T14:44:24;14.40;;;5.60;;
43256;SDS011;28860;43.212;27.934;2023-08-21T14:46:52;15.10;;;5.25;;